Terminal Aerodrome Forecast
Issued by NWS

Home | Current Version | Previous Version | Text Only | Print | Product List | Glossary On
Versions: 1 2 3 4 5 6 7 8 9 10 11 12 13
000
FTUS42 KGSP 232300
TAFAND
TAF
KAND 232329Z 2400/2424 05009KT P6SM BKN100
     FM240700 04007KT P6SM SCT090
     FM241400 04012KT P6SM SCT090
     FM241900 04010KT P6SM BKN070=

USA.gov is the U.S. government's official web portal to all federal, state and local government web resources and services.